WSAP/QPG METAR and TAF weather

Enter ICAO airport designator
Station Type Date Time Source
WSAP METAR 2019/08/25 20:00 UTC NOAA

WSAP 252000Z 05005KT 7000 SCT018 SCT280 28/24 Q1010


Station Type Date Time Source
WSAP Decoded METAR 2019/08/25 20:00 UTC NOAA

Station name not available
Aug 25, 2019 - 04:00 PM EDT / 2019.08.25 2000 UTC
Wind: from the NE (050 degrees) at 6 MPH (5 KT):0
Visibility: 4 mile(s):0
Sky conditions: partly cloudy
Temperature: 82 F (28 C)
Dew Point: 75 F (24 C)
Relative Humidity: 78%
Pressure (altimeter): 29.83 in. Hg (1010 hPa)
ob: WSAP 252000Z 05005KT 7000 SCT018 SCT280 28/24 Q1010
cycle: 20

Station Type Date Time Source
WSAP TAF 2019/08/25 18:08 UTC NOAA

TAF WSAP 251700Z 2518/2700 19007KT 9999 FEW015 SCT020
TEMPO 2603/2607 3000 TSRA FEW012CB BKN015

Example: see airport list